Time;durP1;ratioP1;P1;durP2;ratioP2;P2;SDS_P1;SDS_P2;PMS_P1;PMS_P2;Temp;Humidity;BMP_temperature;BMP_pressure;BME280_temperature;BME280_humidity;BME280_pressure;Samples;Min_cycle;Max_cycle;Signal;HPM_P1;HPM_P2
2022/04/19 00:00:16;;;;;;;12.30;8.30;;;;;;;7.81;46.93;100897.94;690016;28;1520;-82
2022/04/19 00:00:38;;;;;;;12.48;8.02;;;;;;;7.78;47.07;100890.91;690490;28;1515;-82
2022/04/19 00:01:00;;;;;;;11.13;8.20;;;;;;;7.81;47.04;100892.75;691674;28;1127;-82
2022/04/19 00:01:21;;;;;;;11.30;8.43;;;;;;;7.78;47.32;100893.50;687883;28;1283;-82
2022/04/19 00:01:41;;;;;;;10.80;8.60;;;;;;;7.82;47.43;100889.31;687758;28;1347;-82
2022/04/19 00:02:02;;;;;;;11.48;8.60;;;;;;;7.71;47.08;100875.88;690394;28;1328;-82
2022/04/19 00:02:22;;;;;;;11.27;8.38;;;;;;;7.72;47.66;100884.53;693284;28;1654;-82
2022/04/19 00:02:43;;;;;;;10.60;8.07;;;;;;;7.75;47.27;100887.28;692711;28;1219;-82
2022/04/19 00:03:08;;;;;;;11.20;8.10;;;;;;;7.73;47.15;100882.03;689840;28;1162;-83
2022/04/19 00:03:28;;;;;;;11.63;8.20;;;;;;;7.73;47.57;100883.75;690037;28;1969;-82
2022/04/19 00:03:49;;;;;;;11.88;8.00;;;;;;;7.74;47.48;100882.91;693681;28;1238;-82
2022/04/19 00:04:11;;;;;;;10.50;7.63;;;;;;;7.75;46.81;100884.69;694760;28;1177;-82
2022/04/19 00:04:31;;;;;;;10.65;7.85;;;;;;;7.77;47.31;100888.22;687838;28;1237;-82
2022/04/19 00:04:52;;;;;;;11.32;8.05;;;;;;;7.76;47.40;100892.56;687786;28;1231;-82
2022/04/19 00:05:13;;;;;;;11.07;8.20;;;;;;;7.71;47.20;100881.06;693099;28;1276;-83
2022/04/19 00:05:35;;;;;;;10.88;8.30;;;;;;;7.74;47.06;100888.13;695962;28;1170;-82
2022/04/19 00:05:56;;;;;;;10.73;8.15;;;;;;;7.69;47.74;100877.53;693083;28;1268;-82
2022/04/19 00:06:17;;;;;;;12.70;8.45;;;;;;;7.68;47.52;100883.56;693162;28;1144;-82
2022/04/19 00:06:38;;;;;;;12.47;8.27;;;;;;;7.71;47.43;100882.78;690873;28;1278;-82
2022/04/19 00:06:58;;;;;;;12.05;8.20;;;;;;;7.67;47.37;100885.25;684879;28;1358;-82
2022/04/19 00:07:19;;;;;;;9.60;7.65;;;;;;;7.67;47.53;100882.66;682626;29;1336;-82
2022/04/19 00:07:41;;;;;;;10.07;7.60;;;;;;;7.66;47.74;100878.28;685217;28;1048;-82
2022/04/19 00:08:06;;;;;;;10.20;7.40;;;;;;;7.66;47.44;100880.88;687355;28;1258;-83
2022/04/19 00:08:26;;;;;;;10.98;7.75;;;;;;;7.70;47.32;100883.59;688022;28;864;-82
2022/04/19 00:08:51;;;;;;;12.77;8.30;;;;;;;7.66;47.29;100880.88;690413;28;1154;-82
2022/04/19 00:09:12;;;;;;;14.65;8.60;;;;;;;7.74;47.47;100896.78;693134;28;1355;-82
2022/04/19 00:09:32;;;;;;;14.13;8.55;;;;;;;7.68;47.08;100884.44;687144;28;1145;-82
2022/04/19 00:09:53;;;;;;;12.40;8.43;;;;;;;7.62;47.27;100871.19;688585;28;1355;-82
2022/04/19 00:10:14;;;;;;;11.80;8.50;;;;;;;7.68;47.78;100880.97;690634;28;952;-82
2022/04/19 00:10:35;;;;;;;12.07;8.38;;;;;;;7.70;47.71;100887.09;690669;28;997;-82
2022/04/19 00:10:55;;;;;;;11.93;8.68;;;;;;;7.76;47.88;100889.06;692768;28;1231;-82
2022/04/19 00:11:16;;;;;;;10.73;8.57;;;;;;;7.68;47.29;100876.63;692901;28;1305;-82
2022/04/19 00:11:36;;;;;;;10.70;8.63;;;;;;;7.74;47.10;100878.59;687748;28;1035;-82
2022/04/19 00:11:57;;;;;;;11.13;8.35;;;;;;;7.66;47.42;100878.28;694736;28;1290;-82
2022/04/19 00:12:17;;;;;;;11.17;8.10;;;;;;;7.71;47.46;100890.56;696083;28;1032;-82
2022/04/19 00:12:38;;;;;;;12.13;7.80;;;;;;;7.65;47.59;100879.13;687991;28;898;-82
2022/04/19 00:13:01;;;;;;;12.68;8.15;;;;;;;7.65;47.48;100884.31;684216;28;1191;-82
2022/04/19 00:13:21;;;;;;;12.80;8.48;;;;;;;7.64;47.55;100882.53;690686;28;1323;-82
2022/04/19 00:13:42;;;;;;;11.85;8.60;;;;;;;7.57;47.61;100862.31;690479;28;1144;-82
2022/04/19 00:14:02;;;;;;;11.68;7.88;;;;;;;7.59;47.63;100862.38;687109;28;1386;-82
2022/04/19 00:14:23;;;;;;;11.30;7.60;;;;;;;7.59;47.48;100868.47;685105;28;1020;-82
2022/04/19 00:14:43;;;;;;;12.30;7.55;;;;;;;7.57;47.36;100864.03;684701;28;1211;-82
2022/04/19 00:15:06;;;;;;;11.63;7.70;;;;;;;7.59;47.11;100871.06;691576;28;1377;-82
2022/04/19 00:15:28;;;;;;;13.23;8.30;;;;;;;7.54;47.39;100862.19;687876;28;1247;-82
2022/04/19 00:15:49;;;;;;;12.77;8.45;;;;;;;7.60;47.34;100871.94;687668;28;1112;-83
2022/04/19 00:16:09;;;;;;;12.88;8.63;;;;;;;7.54;47.49;100868.28;686761;28;1616;-82
2022/04/19 00:16:30;;;;;;;11.05;8.13;;;;;;;7.60;47.37;100872.84;693387;28;1036;-82
2022/04/19 00:16:51;;;;;;;11.15;8.27;;;;;;;7.60;47.23;100872.84;696736;28;1190;-82
2022/04/19 00:17:11;;;;;;;10.70;8.03;;;;;;;7.63;47.73;100872.94;690337;28;1754;-82
2022/04/19 00:17:32;;;;;;;12.10;8.27;;;;;;;7.53;47.36;100861.31;690674;28;1028;-82
2022/04/19 00:17:52;;;;;;;11.40;7.70;;;;;;;7.56;47.48;100864.84;690592;28;1114;-82
2022/04/19 00:18:14;;;;;;;11.35;7.97;;;;;;;7.64;47.13;100874.75;690682;28;1581;-82
2022/04/19 00:18:34;;;;;;;11.35;8.10;;;;;;;7.56;47.40;100860.56;693198;28;1114;-82
2022/04/19 00:18:55;;;;;;;11.73;8.32;;;;;;;7.53;47.22;100861.31;691772;28;1142;-82
2022/04/19 00:19:15;;;;;;;10.80;7.93;;;;;;;7.59;47.04;100871.06;687033;28;1217;-83
2022/04/19 00:19:36;;;;;;;10.40;7.80;;;;;;;7.52;47.50;100858.63;690021;28;1077;-83
2022/04/19 00:19:57;;;;;;;11.57;8.40;;;;;;;7.56;47.28;100865.75;690242;28;1361;-82
2022/04/19 00:20:17;;;;;;;12.23;8.65;;;;;;;7.53;47.26;100856.13;682405;28;1144;-82
2022/04/19 00:20:39;;;;;;;11.50;8.67;;;;;;;7.53;47.10;100861.31;682660;29;1036;-82
2022/04/19 00:21:02;;;;;;;10.98;8.20;;;;;;;7.52;47.47;100858.63;685069;28;1196;-82
2022/04/19 00:21:22;;;;;;;11.65;8.65;;;;;;;7.55;47.69;100863.94;687922;28;882;-82
2022/04/19 00:21:43;;;;;;;11.88;8.27;;;;;;;7.56;47.58;100873.53;687858;28;1130;-83
2022/04/19 00:22:04;;;;;;;11.82;8.10;;;;;;;7.52;47.39;100863.84;689489;28;1270;-82
2022/04/19 00:22:24;;;;;;;11.07;7.70;;;;;;;7.49;47.41;100861.13;685169;28;1268;-82
2022/04/19 00:22:45;;;;;;;11.68;8.00;;;;;;;7.49;47.26;100868.91;685220;28;1039;-82
2022/04/19 00:23:12;;;;;;;11.00;7.77;;;;;;;7.50;47.50;100861.16;693135;28;1394;-82
2022/04/19 00:23:33;;;;;;;10.38;7.53;;;;;;;7.48;47.63;100857.63;693136;28;1902;-82
2022/04/19 00:23:53;;;;;;;11.87;7.50;;;;;;;7.45;47.22;100856.59;689969;28;1202;-82
2022/04/19 00:24:14;;;;;;;12.00;7.78;;;;;;;7.46;47.16;100860.97;682341;28;1410;-82
2022/04/19 00:24:34;;;;;;;13.27;8.25;;;;;;;7.43;47.25;100858.25;682307;28;1298;-83
2022/04/19 00:24:56;;;;;;;12.33;8.30;;;;;;;7.40;47.32;100854.72;691881;28;1316;-82
2022/04/19 00:25:17;;;;;;;12.63;8.40;;;;;;;7.41;47.45;100855.59;690379;28;1395;-82
2022/04/19 00:25:38;;;;;;;11.95;8.43;;;;;;;7.39;47.31;100852.06;690599;28;1025;-82
2022/04/19 00:25:58;;;;;;;11.23;8.20;;;;;;;7.47;47.61;100863.66;689503;28;1141;-82
2022/04/19 00:26:19;;;;;;;11.50;8.50;;;;;;;7.40;47.39;100857.31;693234;28;1141;-82
2022/04/19 00:26:40;;;;;;;13.13;8.80;;;;;;;7.44;47.63;100865.22;690473;28;1074;-82
2022/04/19 00:27:00;;;;;;;13.68;9.02;;;;;;;7.38;47.58;100856.34;687713;28;1150;-82
2022/04/19 00:27:21;;;;;;;13.80;8.80;;;;;;;7.41;47.92;100863.38;687841;28;1172;-82
2022/04/19 00:27:42;;;;;;;13.10;8.48;;;;;;;7.47;48.25;100866.25;687670;28;1253;-82
2022/04/19 00:28:04;;;;;;;12.70;8.30;;;;;;;7.46;47.87;100866.16;687671;28;1262;-82
2022/04/19 00:28:26;;;;;;;12.20;8.45;;;;;;;7.35;47.84;100848.44;690373;28;1173;-82
2022/04/19 00:28:47;;;;;;;11.80;8.65;;;;;;;7.42;48.10;100861.69;695768;28;1217;-82
2022/04/19 00:29:07;;;;;;;11.73;8.60;;;;;;;7.45;48.19;100872.19;689458;28;1678;-82
2022/04/19 00:29:28;;;;;;;12.45;8.95;;;;;;;7.38;48.24;100850.28;690338;28;1267;-82
2022/04/19 00:29:49;;;;;;;13.43;9.00;;;;;;;7.35;48.11;100856.22;692709;28;1213;-82
2022/04/19 00:30:11;;;;;;;12.27;8.60;;;;;;;7.37;48.27;100854.56;688774;28;1301;-83
2022/04/19 00:30:31;;;;;;;11.88;8.48;;;;;;;7.38;48.62;100860.66;690362;28;1325;-82
2022/04/19 00:30:52;;;;;;;11.57;8.43;;;;;;;7.41;48.00;100860.78;692252;28;1198;-82
2022/04/19 00:31:13;;;;;;;12.65;8.95;;;;;;;7.35;48.45;100850.13;696035;28;1083;-82
2022/04/19 00:31:33;;;;;;;12.97;8.90;;;;;;;7.39;48.35;100860.72;693231;28;1281;-83
2022/04/19 00:31:54;;;;;;;11.77;8.73;;;;;;;7.39;48.36;100852.91;687788;28;1235;-82
2022/04/19 00:32:15;;;;;;;12.02;8.70;;;;;;;7.36;48.37;100849.31;693234;28;1031;-82
2022/04/19 00:32:36;;;;;;;12.00;8.88;;;;;;;7.41;48.49;100863.38;693259;28;889;-82
2022/04/19 00:32:56;;;;;;;12.20;8.80;;;;;;;7.40;48.11;100862.50;690501;28;1079;-82
2022/04/19 00:33:17;;;;;;;11.88;8.50;;;;;;;7.43;48.45;100866.06;690493;28;1200;-81
2022/04/19 00:33:44;;;;;;;11.20;8.03;;;;;;;7.38;48.32;100861.53;687364;28;1260;-82
2022/04/19 00:34:04;;;;;;;12.43;8.85;;;;;;;7.34;48.67;100857.06;690344;28;1219;-82
2022/04/19 00:34:25;;;;;;;11.82;8.50;;;;;;;7.35;48.55;100856.22;690582;28;815;-82
2022/04/19 00:34:46;;;;;;;11.43;8.60;;;;;;;7.35;48.70;100853.63;690390;28;1205;-82
2022/04/19 00:35:09;;;;;;;9.70;7.68;;;;;;;7.36;48.34;100857.09;690394;28;1469;-83
2022/04/19 00:35:29;;;;;;;9.85;7.93;;;;;;;7.36;48.46;100862.28;690523;28;1437;-82
2022/04/19 00:36:05;;;;;;;10.80;8.43;;;;;;;7.34;48.37;100858.75;690455;28;1707;-82
2022/04/19 00:36:28;;;;;;;12.68;9.40;;;;;;;7.27;48.44;100848.09;687727;28;1086;-82
2022/04/19 00:36:49;;;;;;;11.80;9.10;;;;;;;7.33;48.57;100856.97;689825;28;1465;-81
2022/04/19 00:37:09;;;;;;;12.10;8.90;;;;;;;7.30;48.30;100847.34;693195;28;1157;-82
2022/04/19 00:37:30;;;;;;;13.10;8.60;;;;;;;7.35;48.65;100855.31;693258;28;1045;-82
2022/04/19 00:37:53;;;;;;;14.15;9.30;;;;;;;7.37;48.37;100862.34;688397;28;1201;-82
2022/04/19 00:38:14;;;;;;;13.43;9.25;;;;;;;7.31;48.50;100851.72;693203;28;1212;-82
2022/04/19 00:38:35;;;;;;;12.07;8.95;;;;;;;7.30;48.73;100855.13;690527;28;977;-83
2022/04/19 00:38:56;;;;;;;12.68;8.63;;;;;;;7.29;48.79;100852.50;689195;28;1110;-82
2022/04/19 00:39:16;;;;;;;12.23;8.27;;;;;;;7.31;48.64;100854.31;687750;28;1118;-82
2022/04/19 00:39:37;;;;;;;11.95;8.23;;;;;;;7.30;48.57;100852.53;686205;28;1568;-82
2022/04/19 00:39:58;;;;;;;11.00;8.20;;;;;;;7.25;48.76;100849.75;686197;28;1473;-82
2022/04/19 00:40:18;;;;;;;11.73;8.50;;;;;;;7.25;48.83;100851.47;693352;28;1129;-82
2022/04/19 00:40:57;;;;;;;13.30;8.50;;;;;;;7.24;48.65;100853.16;687421;28;1228;-82
2022/04/19 00:41:18;;;;;;;13.43;8.90;;;;;;;7.22;48.60;100856.50;689085;28;1570;-82
2022/04/19 00:41:38;;;;;;;12.05;8.90;;;;;;;7.21;48.78;100845.25;690440;28;1162;-82
2022/04/19 00:42:00;;;;;;;11.27;8.60;;;;;;;7.24;48.99;100860.03;690405;28;1420;-82
2022/04/19 00:42:20;;;;;;;11.30;8.50;;;;;;;7.21;48.74;100846.94;687828;28;1249;-82
2022/04/19 00:42:41;;;;;;;10.63;8.47;;;;;;;7.16;48.54;100841.56;693209;28;947;-82
2022/04/19 00:43:03;;;;;;;11.18;8.68;;;;;;;7.23;48.78;100860.88;692821;28;1531;-82
2022/04/19 00:43:26;;;;;;;11.73;8.70;;;;;;;7.17;48.42;100847.66;687900;28;1259;-82
2022/04/19 00:43:46;;;;;;;12.88;8.40;;;;;;;7.18;48.55;100854.63;682473;28;1910;-82
2022/04/19 00:44:07;;;;;;;13.73;8.90;;;;;;;7.19;48.48;100848.59;685074;28;1147;-82
2022/04/19 00:44:28;;;;;;;13.10;8.82;;;;;;;7.16;48.48;100844.16;687963;28;875;-82
2022/04/19 00:44:49;;;;;;;12.40;9.20;;;;;;;7.15;48.47;100847.59;688811;28;1073;-83
2022/04/19 00:45:10;;;;;;;12.07;9.00;;;;;;;7.15;48.50;100846.69;687724;28;1114;-82
2022/04/19 00:45:34;;;;;;;13.70;9.35;;;;;;;7.15;48.82;100846.69;684952;28;1387;-82
2022/04/19 00:45:55;;;;;;;13.02;8.95;;;;;;;7.12;48.52;100837.94;683829;28;1148;-82
2022/04/19 00:46:15;;;;;;;13.53;9.30;;;;;;;7.17;48.78;100850.25;687557;28;1544;-82
2022/04/19 00:46:36;;;;;;;13.43;9.20;;;;;;;7.14;48.40;100845.81;687810;28;1025;-82
2022/04/19 00:46:57;;;;;;;14.20;9.48;;;;;;;7.18;48.91;100857.22;686493;28;1592;-82
2022/04/19 00:47:18;;;;;;;12.55;8.90;;;;;;;7.18;48.63;100852.88;688577;28;1523;-82
2022/04/19 00:47:39;;;;;;;12.25;8.70;;;;;;;7.22;48.69;100854.81;682389;29;1107;-82
2022/04/19 00:48:02;;;;;;;11.63;8.50;;;;;;;7.22;48.68;100865.19;689039;28;1239;-82
2022/04/19 00:48:27;;;;;;;11.82;8.73;;;;;;;7.08;48.80;100838.66;685186;28;1028;-82
2022/04/19 00:48:49;;;;;;;11.57;8.55;;;;;;;7.15;48.81;100857.06;687760;28;1289;-82
2022/04/19 00:49:09;;;;;;;12.35;8.77;;;;;;;7.12;49.00;100858.72;690384;28;1255;-82
2022/04/19 00:49:33;;;;;;;13.75;9.18;;;;;;;7.16;48.94;100864.03;687191;28;990;-82
2022/04/19 00:49:54;;;;;;;14.93;9.80;;;;;;;7.09;48.90;100848.22;687135;28;1468;-82
2022/04/19 00:50:15;;;;;;;13.60;9.70;;;;;;;7.08;49.13;100848.13;687631;28;1822;-83
2022/04/19 00:50:37;;;;;;;13.13;9.63;;;;;;;7.13;49.22;100855.28;690476;28;1314;-82
2022/04/19 00:50:58;;;;;;;12.57;9.52;;;;;;;7.11;48.94;100856.94;683894;28;1549;-82
2022/04/19 00:51:19;;;;;;;12.35;9.10;;;;;;;7.07;48.95;100855.00;685059;28;1250;-82
2022/04/19 00:51:40;;;;;;;12.63;8.90;;;;;;;7.12;48.81;100863.91;687699;28;1325;-82
2022/04/19 00:52:03;;;;;;;11.85;8.50;;;;;;;7.05;49.29;100851.47;690327;28;1303;-82
2022/04/19 00:52:23;;;;;;;11.70;8.52;;;;;;;6.99;48.85;100836.53;685086;28;1295;-82
2022/04/19 00:52:44;;;;;;;12.50;9.05;;;;;;;7.00;49.22;100842.59;687915;28;1103;-82
2022/04/19 00:53:08;;;;;;;14.80;9.95;;;;;;;7.07;49.19;100860.22;687189;28;1282;-82
2022/04/19 00:53:29;;;;;;;14.25;9.77;;;;;;;6.99;49.21;100843.41;687767;28;1160;-83
2022/04/19 00:53:53;;;;;;;12.55;9.18;;;;;;;6.97;49.13;100843.38;690532;28;1311;-82
2022/04/19 00:54:15;;;;;;;11.90;8.43;;;;;;;7.04;49.09;100849.72;687776;28;1256;-82
2022/04/19 00:54:37;;;;;;;13.20;8.70;;;;;;;6.99;48.97;100843.41;687750;28;880;-82
2022/04/19 00:55:00;;;;;;;14.00;9.18;;;;;;;6.99;48.83;100841.72;692980;28;1267;-83
2022/04/19 00:55:22;;;;;;;15.07;9.57;;;;;;;6.99;49.21;100852.09;690344;28;1275;-82
2022/04/19 00:55:44;;;;;;;15.80;9.90;;;;;;;6.95;48.91;100838.94;690449;28;941;-82
2022/04/19 00:56:07;;;;;;;14.38;9.45;;;;;;;6.96;49.32;100840.69;686895;28;1301;-82
2022/04/19 00:56:29;;;;;;;12.20;9.02;;;;;;;7.04;49.02;100860.09;685091;28;1642;-82
2022/04/19 00:56:50;;;;;;;11.95;8.68;;;;;;;6.99;49.41;100851.19;685748;28;1198;-82
2022/04/19 00:57:11;;;;;;;12.05;8.75;;;;;;;6.92;49.16;100849.16;693092;28;1204;-82
2022/04/19 00:57:37;;;;;;;12.02;8.73;;;;;;;7.02;49.15;100851.34;687794;28;914;-82
2022/04/19 00:57:59;;;;;;;11.38;8.75;;;;;;;6.97;49.10;100845.97;691690;28;1135;-82
2022/04/19 00:58:20;;;;;;;11.50;8.95;;;;;;;6.95;49.39;100855.38;687644;28;1121;-82
2022/04/19 00:58:42;;;;;;;11.73;9.30;;;;;;;6.92;49.40;100828.41;690404;28;1243;-82
2022/04/19 00:59:04;;;;;;;12.98;9.45;;;;;;;7.02;49.03;100855.63;691884;28;1582;-82
2022/04/19 00:59:25;;;;;;;15.77;8.93;;;;;;;6.98;48.90;100850.34;690795;28;1392;-82
2022/04/19 01:00:01;;;;;;;15.55;9.05;;;;;;;6.93;49.30;100837.97;695065;28;1190;-82
2022/04/19 01:00:23;;;;;;;12.55;9.02;;;;;;;6.96;49.51;100841.59;687238;28;1739;-82
2022/04/19 01:01:10;;;;;;;13.80;8.95;;;;;;;6.93;49.67;100840.59;687405;28;1069;-82
2022/04/19 01:01:31;;;;;;;13.03;8.70;;;;;;;7.00;49.50;100852.97;693954;28;1179;-82
2022/04/19 01:01:52;;;;;;;12.48;8.77;;;;;;;6.99;49.14;100852.09;690454;28;1202;-82
2022/04/19 01:02:13;;;;;;;12.52;9.15;;;;;;;6.93;49.41;100835.38;687738;28;1798;-82
2022/04/19 01:02:34;;;;;;;11.97;9.33;;;;;;;6.95;49.47;100844.13;685142;28;1005;-82
2022/04/19 01:02:55;;;;;;;11.82;9.32;;;;;;;6.92;49.51;100839.69;687729;28;1188;-82
2022/04/19 01:03:16;;;;;;;11.90;8.98;;;;;;;6.89;49.60;100836.06;687726;28;1292;-82
2022/04/19 01:03:37;;;;;;;13.30;9.43;;;;;;;6.89;49.31;100831.78;687223;28;1915;-83
2022/04/19 01:04:05;;;;;;;12.93;9.27;;;;;;;6.91;49.55;100837.00;686430;28;1422;-82
2022/04/19 01:04:26;;;;;;;12.60;8.77;;;;;;;6.89;49.33;100833.47;684290;28;1180;-82
2022/04/19 01:04:48;;;;;;;11.93;8.57;;;;;;;6.93;49.44;100841.44;685157;28;1147;-81
2022/04/19 01:05:09;;;;;;;12.30;8.65;;;;;;;6.95;49.69;100844.13;687690;28;1190;-83
2022/04/19 01:05:30;;;;;;;14.77;9.40;;;;;;;6.93;49.46;100845.78;693211;28;977;-81
2022/04/19 01:05:53;;;;;;;15.15;9.60;;;;;;;6.85;49.79;100828.16;690361;28;1115;-82
2022/04/19 01:06:15;;;;;;;13.82;9.45;;;;;;;6.85;49.57;100827.25;690225;28;1790;-82
2022/04/19 01:06:41;;;;;;;12.40;9.02;;;;;;;6.86;49.63;100834.22;692831;28;1335;-82
2022/04/19 01:07:03;;;;;;;13.15;9.25;;;;;;;6.82;49.77;100821.94;692948;28;1330;-82
2022/04/19 01:07:24;;;;;;;14.98;9.50;;;;;;;6.92;49.53;100838.78;685186;28;1585;-82
2022/04/19 01:07:49;;;;;;;13.50;9.27;;;;;;;6.91;49.81;100844.78;690156;28;1312;-82
2022/04/19 01:08:15;;;;;;;11.90;9.00;;;;;;;6.80;49.85;100819.28;687616;28;1718;-82
2022/04/19 01:08:36;;;;;;;11.25;9.20;;;;;;;6.82;49.71;100822.81;695845;28;1292;-83
2022/04/19 01:08:57;;;;;;;13.25;10.00;;;;;;;6.91;49.62;100837.00;689351;28;1781;-81
2022/04/19 01:09:21;;;;;;;14.52;10.00;;;;;;;6.82;49.80;100833.19;690466;28;1080;-82
2022/04/19 01:09:42;;;;;;;16.65;10.05;;;;;;;6.90;49.54;100835.22;687085;28;1379;-82
2022/04/19 01:10:03;;;;;;;16.40;9.95;;;;;;;6.80;49.74;100819.28;684931;28;1606;-82
2022/04/19 01:10:26;;;;;;;15.43;9.30;;;;;;;6.79;49.48;100820.09;690434;28;1456;-82
2022/04/19 01:10:48;;;;;;;12.68;9.15;;;;;;;6.75;49.79;100817.31;687564;28;1161;-82
2022/04/19 01:13:24;;;;;;;10.63;8.50;;;;;;;6.72;49.85;100823.22;690458;28;813;-82
2022/04/19 01:13:49;;;;;;;11.57;9.05;;;;;;;6.75;50.04;100827.66;693030;28;1468;-82
2022/04/19 01:14:09;;;;;;;12.00;9.00;;;;;;;6.77;49.92;100829.53;691854;28;1106;-82
2022/04/19 01:14:34;;;;;;;12.20;9.10;;;;;;;6.71;50.08;100830.09;690271;28;1346;-82
2022/04/19 01:14:55;;;;;;;11.70;8.85;;;;;;;6.79;49.96;100843.44;688686;28;1214;-82
2022/04/19 01:15:18;;;;;;;10.80;8.63;;;;;;;6.68;50.44;100818.69;690320;28;1459;-82
2022/04/19 01:15:53;;;;;;;11.02;8.43;;;;;;;6.69;50.13;100821.34;694763;28;1174;-82
2022/04/19 01:16:15;;;;;;;12.55;9.00;;;;;;;6.68;50.07;100818.69;690237;28;1265;-82
2022/04/19 01:16:36;;;;;;;13.27;9.35;;;;;;;6.71;49.96;100830.09;682335;29;991;-82
2022/04/19 01:16:57;;;;;;;13.75;9.75;;;;;;;6.71;50.07;100834.44;693051;28;1232;-82
2022/04/19 01:17:18;;;;;;;14.75;10.00;;;;;;;6.69;50.28;100830.84;690365;28;1522;-82
2022/04/19 01:17:43;;;;;;;14.82;9.90;;;;;;;6.71;50.44;100835.28;688368;28;1737;-82
2022/04/19 01:18:04;;;;;;;14.90;9.68;;;;;;;6.65;50.47;100829.81;683426;28;1471;-82
2022/04/19 01:18:29;;;;;;;13.77;9.48;;;;;;;6.68;50.45;100834.25;684719;28;1284;-81
2022/04/19 01:18:57;;;;;;;14.50;9.27;;;;;;;6.67;50.40;100830.78;683849;28;1535;-82
2022/04/19 01:19:18;;;;;;;14.55;9.30;;;;;;;6.69;50.75;100825.66;683450;28;1823;-82
2022/04/19 01:19:42;;;;;;;13.55;9.10;;;;;;;6.64;50.40;100816.78;684388;28;1319;-82
2022/04/19 01:20:12;;;;;;;14.48;9.05;;;;;;;6.63;50.81;100830.56;684807;28;1339;-82
2022/04/19 01:20:34;;;;;;;13.82;9.25;;;;;;;6.60;50.18;100827.81;685910;28;1600;-82
2022/04/19 01:20:56;;;;;;;14.73;9.93;;;;;;;6.61;50.62;100824.41;691358;28;1469;-82
2022/04/19 01:21:17;;;;;;;13.35;9.70;;;;;;;6.58;50.79;100828.66;692736;28;1207;-82
2022/04/19 01:21:48;;;;;;;13.03;9.57;;;;;;;6.55;50.38;100823.31;692957;28;1310;-81
2022/04/19 01:22:14;;;;;;;13.07;9.30;;;;;;;6.57;51.15;100831.19;687532;28;1595;-82
2022/04/19 01:22:40;;;;;;;12.38;9.00;;;;;;;6.56;51.30;100824.19;690212;28;1368;-82
2022/04/19 01:23:01;;;;;;;12.50;9.00;;;;;;;6.61;51.04;100837.38;688257;28;1214;-82
2022/04/19 01:23:26;;;;;;;12.75;9.45;;;;;;;6.51;51.00;100823.13;687796;28;843;-82
2022/04/19 01:23:46;;;;;;;12.18;9.20;;;;;;;6.49;51.00;100824.72;691029;28;1926;-82
2022/04/19 01:24:07;;;;;;;12.05;9.38;;;;;;;6.53;51.16;100830.16;692868;28;1313;-82
2022/04/19 01:24:28;;;;;;;11.30;8.90;;;;;;;6.52;50.99;100827.50;690546;28;728;-82
2022/04/19 01:24:49;;;;;;;12.20;9.15;;;;;;;6.54;50.94;100837.13;690371;28;1266;-82
2022/04/19 01:25:18;;;;;;;12.10;8.85;;;;;;;6.55;51.11;100837.97;693192;28;905;-82
2022/04/19 01:25:39;;;;;;;12.18;8.80;;;;;;;6.47;51.28;100823.78;687649;28;879;-82
2022/04/19 01:26:00;;;;;;;14.00;8.85;;;;;;;6.44;51.24;100819.34;691841;28;1275;-82
2022/04/19 01:26:23;;;;;;;16.80;9.20;;;;;;;6.44;51.32;100829.72;687503;28;1118;-81
2022/04/19 01:26:45;;;;;;;16.87;9.47;;;;;;;6.44;51.46;100824.53;687510;28;1142;-82
2022/04/19 01:27:06;;;;;;;14.18;8.90;;;;;;;6.45;51.24;100834.09;686234;28;1384;-82
2022/04/19 01:27:28;;;;;;;12.30;8.80;;;;;;;6.41;51.79;100829.59;687309;28;1268;-82
2022/04/19 01:27:49;;;;;;;12.38;9.23;;;;;;;6.45;51.54;100828.94;690430;28;1258;-82
2022/04/19 01:28:10;;;;;;;12.70;9.73;;;;;;;6.47;51.51;100840.25;690191;28;1273;-82
2022/04/19 01:28:31;;;;;;;13.20;9.73;;;;;;;6.45;51.29;100839.28;691036;28;988;-82
2022/04/19 01:28:52;;;;;;;13.63;9.75;;;;;;;6.44;51.65;100829.72;692155;28;1177;-82
2022/04/19 01:29:12;;;;;;;13.70;9.70;;;;;;;6.42;51.74;100832.25;684887;28;1054;-82
2022/04/19 01:29:33;;;;;;;13.35;9.68;;;;;;;6.42;51.68;100836.53;687264;28;941;-82
2022/04/19 01:30:00;;;;;;;14.50;9.95;;;;;;;6.48;51.55;100841.13;687478;28;961;-82
2022/04/19 01:30:21;;;;;;;15.02;10.00;;;;;;;6.47;51.71;100845.44;690224;28;1117;-82
2022/04/19 01:30:49;;;;;;;14.32;9.80;;;;;;;6.42;51.96;100831.34;687568;28;1406;-82
2022/04/19 01:31:11;;;;;;;13.93;9.13;;;;;;;6.43;51.64;100833.13;691813;28;1528;-82
2022/04/19 01:31:41;;;;;;;14.77;9.27;;;;;;;6.43;51.60;100836.63;692386;28;1477;-82
2022/04/19 01:32:04;;;;;;;15.48;9.50;;;;;;;6.41;51.78;100835.66;686410;28;1429;-82
2022/04/19 01:32:28;;;;;;;14.20;9.30;;;;;;;6.38;51.73;100826.88;690440;28;1228;-82
2022/04/19 01:32:49;;;;;;;15.23;9.50;;;;;;;6.46;51.77;100854.03;693451;28;1310;-82
2022/04/19 01:33:10;;;;;;;16.50;9.87;;;;;;;6.35;51.58;100834.47;686089;28;1703;-82
2022/04/19 01:33:31;;;;;;;14.85;9.80;;;;;;;6.40;51.76;100838.19;689346;28;1036;-82
2022/04/19 01:33:53;;;;;;;14.30;9.40;;;;;;;6.39;51.53;100841.59;691324;28;1127;-82
2022/04/19 01:34:13;;;;;;;14.35;9.60;;;;;;;6.29;51.87;100828.22;692962;28;1386;-82
2022/04/19 01:34:43;;;;;;;14.47;9.60;;;;;;;6.30;51.70;100829.09;693094;28;897;-82
2022/04/19 01:35:18;;;;;;;13.65;9.20;;;;;;;6.34;51.88;100830.13;692450;28;1463;-82
2022/04/19 01:35:44;;;;;;;13.25;9.35;;;;;;;6.27;51.88;100824.63;692936;28;1090;-82
2022/04/19 01:36:09;;;;;;;12.95;9.20;;;;;;;6.33;52.05;100842.22;687609;28;1029;-82
2022/04/19 01:36:36;;;;;;;12.82;9.48;;;;;;;6.37;52.00;100840.63;690365;28;1037;-82
2022/04/19 01:36:58;;;;;;;13.23;9.57;;;;;;;6.36;51.87;100838.84;686613;28;1214;-82
2022/04/19 01:37:25;;;;;;;12.85;9.25;;;;;;;6.30;51.81;100840.34;684998;28;1359;-82
2022/04/19 01:37:49;;;;;;;13.13;9.18;;;;;;;6.33;51.94;100841.31;684871;28;1384;-82
2022/04/19 01:38:15;;;;;;;13.55;8.98;;;;;;;6.31;52.15;100838.63;690227;28;1975;-82
2022/04/19 01:38:35;;;;;;;13.30;9.23;;;;;;;6.27;52.04;100831.53;690473;28;936;-82
2022/04/19 01:38:56;;;;;;;13.00;9.20;;;;;;;6.28;51.78;100839.38;690377;28;1257;-82
2022/04/19 01:40:16;;;;;;;13.98;9.65;;;;;;;6.28;52.10;100839.38;690313;28;1125;-82
2022/04/19 01:40:18;;;;;;;13.18;9.50;;;;;;;6.21;52.21;100832.16;690313;28;1189;-82
2022/04/19 01:40:39;;;;;;;12.35;9.30;;;;;;;6.27;52.43;100842.78;687582;28;939;-82
2022/04/19 01:41:04;;;;;;;11.93;9.38;;;;;;;6.19;52.22;100833.75;692863;28;1276;-82
2022/04/19 01:41:52;;;;;;;15.10;10.00;;;;;;;6.14;52.11;100825.78;690545;28;1167;-82
2022/04/19 01:42:13;;;;;;;15.45;10.00;;;;;;;6.14;52.49;100818.00;687780;28;1363;-82
2022/04/19 01:42:40;;;;;;;15.40;9.60;;;;;;;6.16;52.08;100831.03;690313;28;1180;-82
2022/04/19 01:43:03;;;;;;;13.75;9.80;;;;;;;6.17;52.34;100830.22;682258;28;1189;-82
2022/04/19 01:43:37;;;;;;;13.95;10.00;;;;;;;6.22;52.27;100839.09;690226;28;1915;-83
2022/04/19 01:43:59;;;;;;;14.03;10.10;;;;;;;6.23;52.66;100845.16;693131;28;1153;-82
2022/04/19 01:44:20;;;;;;;13.93;9.82;;;;;;;6.13;52.86;100823.09;690268;28;1496;-82
2022/04/19 01:44:41;;;;;;;14.38;9.80;;;;;;;6.14;52.43;100823.19;687704;28;1251;-82
2022/04/19 01:45:03;;;;;;;14.15;9.70;;;;;;;6.14;52.41;100832.69;685444;28;1634;-82
2022/04/19 01:45:26;;;;;;;13.98;9.60;;;;;;;6.13;52.36;100823.09;690380;28;1269;-82
2022/04/19 01:45:51;;;;;;;12.57;8.70;;;;;;;6.19;52.68;100832.91;687518;28;1324;-82
2022/04/19 01:46:17;;;;;;;14.88;9.25;;;;;;;6.18;52.30;100833.72;683277;28;1799;-82
2022/04/19 01:46:39;;;;;;;15.65;9.90;;;;;;;6.12;52.25;100821.34;684626;28;1135;-82
2022/04/19 01:47:07;;;;;;;14.40;9.93;;;;;;;6.19;52.63;100838.94;682899;28;1804;-82
2022/04/19 01:47:30;;;;;;;14.70;9.60;;;;;;;6.10;52.40;100823.88;684981;28;1217;-82
2022/04/19 01:47:54;;;;;;;17.60;9.88;;;;;;;6.10;52.58;100828.16;690328;28;1374;-82
2022/04/19 01:48:15;;;;;;;15.45;9.73;;;;;;;6.10;52.32;100830.75;690235;28;1690;-81
2022/04/19 01:48:36;;;;;;;15.70;9.82;;;;;;;6.16;52.34;100839.69;687227;28;1268;-82
2022/04/19 01:48:56;;;;;;;14.30;9.80;;;;;;;6.12;52.50;100827.41;683723;28;1227;-82
2022/04/19 01:49:18;;;;;;;13.95;9.43;;;;;;;6.09;52.46;100828.97;690311;28;1757;-82
2022/04/19 01:49:39;;;;;;;13.68;9.55;;;;;;;6.07;52.39;100826.31;686911;28;1213;-82